sensor_id;sensor_type;location;lat;lon;timestamp;P1;durP1;ratioP1;P2;durP2;ratioP2
41556;SDS011;27720;51.992;5.890;2022-10-17T18:08:48;16.60;;;8.50;;
41556;SDS011;27720;51.992;5.890;2022-10-17T18:11:16;18.13;;;9.33;;
41556;SDS011;27720;51.992;5.890;2022-10-17T18:13:41;21.50;;;10.23;;
41556;SDS011;27720;51.992;5.890;2022-10-17T18:16:07;20.67;;;10.63;;
41556;SDS011;27720;51.992;5.890;2022-10-17T18:18:41;19.70;;;10.18;;
41556;SDS011;27720;51.992;5.890;2022-10-17T18:21:09;20.05;;;10.55;;
41556;SDS011;27720;51.992;5.890;2022-10-17T18:23:39;20.30;;;9.70;;
41556;SDS011;27720;51.992;5.890;2022-10-17T18:26:06;23.05;;;11.07;;
41556;SDS011;27720;51.992;5.890;2022-10-17T18:28:32;21.30;;;10.65;;
41556;SDS011;27720;51.992;5.890;2022-10-17T18:31:03;22.77;;;11.25;;
41556;SDS011;27720;51.992;5.890;2022-10-17T18:33:31;21.75;;;10.82;;
41556;SDS011;27720;51.992;5.890;2022-10-17T18:36:00;24.98;;;9.85;;
41556;SDS011;27720;51.992;5.890;2022-10-17T18:38:27;22.15;;;11.48;;
41556;SDS011;27720;51.992;5.890;2022-10-17T18:41:03;23.38;;;10.68;;
41556;SDS011;27720;51.992;5.890;2022-10-17T18:43:36;24.25;;;10.73;;
41556;SDS011;27720;51.992;5.890;2022-10-17T18:46:07;17.60;;;9.27;;
41556;SDS011;27720;51.992;5.890;2022-10-17T18:48:34;25.02;;;10.90;;
41556;SDS011;27720;51.992;5.890;2022-10-17T18:51:03;17.88;;;9.27;;
41556;SDS011;27720;51.992;5.890;2022-10-17T18:53:32;21.20;;;10.60;;
41556;SDS011;27720;51.992;5.890;2022-10-17T18:55:59;23.13;;;10.48;;
41556;SDS011;27720;51.992;5.890;2022-10-17T18:58:27;24.33;;;10.25;;
41556;SDS011;27720;51.992;5.890;2022-10-17T19:00:53;25.08;;;10.65;;
41556;SDS011;27720;51.992;5.890;2022-10-17T19:03:19;20.73;;;10.38;;
41556;SDS011;27720;51.992;5.890;2022-10-17T19:05:45;22.42;;;10.95;;
41556;SDS011;27720;51.992;5.890;2022-10-17T19:08:12;21.77;;;10.07;;
41556;SDS011;27720;51.992;5.890;2022-10-17T19:10:41;22.17;;;9.73;;
41556;SDS011;27720;51.992;5.890;2022-10-17T19:13:08;22.52;;;10.68;;
41556;SDS011;27720;51.992;5.890;2022-10-17T19:15:36;23.38;;;10.77;;
41556;SDS011;27720;51.992;5.890;2022-10-17T19:18:08;22.45;;;9.80;;
41556;SDS011;27720;51.992;5.890;2022-10-17T19:20:34;25.60;;;10.68;;
41556;SDS011;27720;51.992;5.890;2022-10-17T19:22:59;20.58;;;10.70;;
41556;SDS011;27720;51.992;5.890;2022-10-17T19:25:29;30.85;;;12.80;;
41556;SDS011;27720;51.992;5.890;2022-10-17T19:27:55;24.83;;;11.30;;
41556;SDS011;27720;51.992;5.890;2022-10-17T19:30:22;27.10;;;11.57;;
41556;SDS011;27720;51.992;5.890;2022-10-17T19:32:48;24.40;;;10.55;;
41556;SDS011;27720;51.992;5.890;2022-10-17T19:35:14;26.70;;;11.52;;
41556;SDS011;27720;51.992;5.890;2022-10-17T19:37:46;19.67;;;9.15;;
41556;SDS011;27720;51.992;5.890;2022-10-17T19:40:12;28.88;;;11.10;;
41556;SDS011;27720;51.992;5.890;2022-10-17T19:42:41;25.55;;;11.07;;
41556;SDS011;27720;51.992;5.890;2022-10-17T19:45:07;23.33;;;10.30;;
41556;SDS011;27720;51.992;5.890;2022-10-17T19:47:36;24.10;;;10.32;;
41556;SDS011;27720;51.992;5.890;2022-10-17T19:50:05;23.27;;;10.48;;
41556;SDS011;27720;51.992;5.890;2022-10-17T19:52:31;22.08;;;10.27;;
41556;SDS011;27720;51.992;5.890;2022-10-17T19:55:00;24.63;;;9.98;;
41556;SDS011;27720;51.992;5.890;2022-10-17T19:57:26;25.65;;;10.18;;
41556;SDS011;27720;51.992;5.890;2022-10-17T19:59:51;25.25;;;11.27;;
41556;SDS011;27720;51.992;5.890;2022-10-17T20:02:17;22.58;;;9.50;;
41556;SDS011;27720;51.992;5.890;2022-10-17T20:04:44;28.27;;;10.63;;
41556;SDS011;27720;51.992;5.890;2022-10-17T20:07:09;20.38;;;10.55;;
41556;SDS011;27720;51.992;5.890;2022-10-17T20:09:35;23.10;;;9.55;;
41556;SDS011;27720;51.992;5.890;2022-10-17T20:12:01;20.55;;;9.32;;
41556;SDS011;27720;51.992;5.890;2022-10-17T20:14:34;21.38;;;10.13;;
41556;SDS011;27720;51.992;5.890;2022-10-17T20:17:00;25.95;;;9.85;;
41556;SDS011;27720;51.992;5.890;2022-10-17T20:19:26;24.52;;;9.52;;
41556;SDS011;27720;51.992;5.890;2022-10-17T20:21:52;19.38;;;8.80;;
41556;SDS011;27720;51.992;5.890;2022-10-17T20:24:18;24.17;;;10.10;;
41556;SDS011;27720;51.992;5.890;2022-10-17T20:26:43;20.13;;;8.93;;
41556;SDS011;27720;51.992;5.890;2022-10-17T20:29:11;28.40;;;9.90;;
41556;SDS011;27720;51.992;5.890;2022-10-17T20:31:42;21.08;;;9.00;;
41556;SDS011;27720;51.992;5.890;2022-10-17T20:34:13;21.52;;;9.95;;
41556;SDS011;27720;51.992;5.890;2022-10-17T20:36:40;19.35;;;8.43;;
41556;SDS011;27720;51.992;5.890;2022-10-17T20:39:06;20.40;;;9.63;;
41556;SDS011;27720;51.992;5.890;2022-10-17T20:41:33;25.60;;;9.55;;
41556;SDS011;27720;51.992;5.890;2022-10-17T20:43:59;23.92;;;9.70;;
41556;SDS011;27720;51.992;5.890;2022-10-17T20:46:28;21.63;;;9.48;;
41556;SDS011;27720;51.992;5.890;2022-10-17T20:48:54;18.40;;;9.00;;
41556;SDS011;27720;51.992;5.890;2022-10-17T20:51:23;23.23;;;10.00;;
41556;SDS011;27720;51.992;5.890;2022-10-17T20:53:49;22.95;;;9.27;;
41556;SDS011;27720;51.992;5.890;2022-10-17T20:56:20;26.95;;;9.90;;
41556;SDS011;27720;51.992;5.890;2022-10-17T20:58:51;22.05;;;10.00;;
41556;SDS011;27720;51.992;5.890;2022-10-17T21:01:19;24.73;;;10.77;;
41556;SDS011;27720;51.992;5.890;2022-10-17T21:03:48;22.65;;;9.65;;
41556;SDS011;27720;51.992;5.890;2022-10-17T21:06:15;22.92;;;9.45;;
41556;SDS011;27720;51.992;5.890;2022-10-17T21:08:42;22.48;;;9.27;;
41556;SDS011;27720;51.992;5.890;2022-10-17T21:11:13;22.95;;;10.20;;
41556;SDS011;27720;51.992;5.890;2022-10-17T21:13:44;31.27;;;11.85;;
41556;SDS011;27720;51.992;5.890;2022-10-17T21:18:44;24.90;;;10.32;;
41556;SDS011;27720;51.992;5.890;2022-10-17T21:21:14;23.38;;;10.63;;
41556;SDS011;27720;51.992;5.890;2022-10-17T21:23:55;32.17;;;10.75;;
41556;SDS011;27720;51.992;5.890;2022-10-17T21:26:25;27.98;;;11.10;;
41556;SDS011;27720;51.992;5.890;2022-10-17T21:28:56;23.30;;;10.85;;
41556;SDS011;27720;51.992;5.890;2022-10-17T21:31:33;28.55;;;10.52;;
41556;SDS011;27720;51.992;5.890;2022-10-17T21:34:16;29.92;;;10.75;;
41556;SDS011;27720;51.992;5.890;2022-10-17T21:36:45;25.83;;;10.93;;
41556;SDS011;27720;51.992;5.890;2022-10-17T21:39:14;27.23;;;10.70;;
41556;SDS011;27720;51.992;5.890;2022-10-17T21:41:48;30.23;;;11.45;;
41556;SDS011;27720;51.992;5.890;2022-10-17T21:44:15;31.30;;;11.95;;
41556;SDS011;27720;51.992;5.890;2022-10-17T21:46:43;36.08;;;12.23;;
41556;SDS011;27720;51.992;5.890;2022-10-17T21:49:13;29.63;;;12.38;;
41556;SDS011;27720;51.992;5.890;2022-10-17T21:51:41;30.40;;;11.77;;
41556;SDS011;27720;51.992;5.890;2022-10-17T21:54:08;29.25;;;12.18;;
41556;SDS011;27720;51.992;5.890;2022-10-17T21:56:36;32.70;;;12.07;;
41556;SDS011;27720;51.992;5.890;2022-10-17T21:59:11;27.38;;;11.30;;
41556;SDS011;27720;51.992;5.890;2022-10-17T22:01:41;34.78;;;12.32;;
41556;SDS011;27720;51.992;5.890;2022-10-17T22:04:14;30.65;;;12.38;;
41556;SDS011;27720;51.992;5.890;2022-10-17T22:06:41;34.03;;;12.23;;
41556;SDS011;27720;51.992;5.890;2022-10-17T22:09:15;31.90;;;12.48;;
41556;SDS011;27720;51.992;5.890;2022-10-17T22:11:44;31.75;;;12.00;;
41556;SDS011;27720;51.992;5.890;2022-10-17T22:14:16;28.48;;;11.65;;
41556;SDS011;27720;51.992;5.890;2022-10-17T22:16:43;27.40;;;11.35;;
41556;SDS011;27720;51.992;5.890;2022-10-17T22:19:15;35.58;;;13.40;;
41556;SDS011;27720;51.992;5.890;2022-10-17T22:21:43;31.88;;;13.02;;
41556;SDS011;27720;51.992;5.890;2022-10-17T22:24:09;34.42;;;12.80;;
41556;SDS011;27720;51.992;5.890;2022-10-17T22:26:37;28.98;;;11.80;;
41556;SDS011;27720;51.992;5.890;2022-10-17T22:29:04;32.05;;;11.70;;
41556;SDS011;27720;51.992;5.890;2022-10-17T22:31:30;34.80;;;11.50;;
41556;SDS011;27720;51.992;5.890;2022-10-17T22:34:00;36.87;;;13.20;;
41556;SDS011;27720;51.992;5.890;2022-10-17T22:36:29;34.20;;;12.27;;
41556;SDS011;27720;51.992;5.890;2022-10-17T22:38:55;38.20;;;13.27;;
41556;SDS011;27720;51.992;5.890;2022-10-17T22:41:21;36.25;;;12.98;;
41556;SDS011;27720;51.992;5.890;2022-10-17T22:43:47;32.28;;;13.07;;
41556;SDS011;27720;51.992;5.890;2022-10-17T22:46:13;36.83;;;13.82;;
41556;SDS011;27720;51.992;5.890;2022-10-17T22:48:42;30.83;;;12.37;;
41556;SDS011;27720;51.992;5.890;2022-10-17T22:51:08;35.83;;;12.77;;
41556;SDS011;27720;51.992;5.890;2022-10-17T22:53:39;38.15;;;12.20;;
41556;SDS011;27720;51.992;5.890;2022-10-17T22:56:13;31.30;;;12.85;;
41556;SDS011;27720;51.992;5.890;2022-10-17T22:58:45;25.23;;;11.05;;
41556;SDS011;27720;51.992;5.890;2022-10-17T23:01:23;24.13;;;10.52;;
41556;SDS011;27720;51.992;5.890;2022-10-17T23:04:15;29.23;;;10.88;;
41556;SDS011;27720;51.992;5.890;2022-10-17T23:06:53;31.10;;;11.32;;
41556;SDS011;27720;51.992;5.890;2022-10-17T23:09:41;28.08;;;11.10;;
41556;SDS011;27720;51.992;5.890;2022-10-17T23:12:09;31.83;;;12.07;;
41556;SDS011;27720;51.992;5.890;2022-10-17T23:14:39;34.42;;;11.40;;
41556;SDS011;27720;51.992;5.890;2022-10-17T23:17:10;26.48;;;11.95;;
41556;SDS011;27720;51.992;5.890;2022-10-17T23:19:37;33.20;;;11.60;;
41556;SDS011;27720;51.992;5.890;2022-10-17T23:22:03;30.35;;;11.50;;
41556;SDS011;27720;51.992;5.890;2022-10-17T23:24:31;34.33;;;11.88;;
41556;SDS011;27720;51.992;5.890;2022-10-17T23:26:56;33.60;;;12.20;;
41556;SDS011;27720;51.992;5.890;2022-10-17T23:29:22;33.45;;;11.00;;
41556;SDS011;27720;51.992;5.890;2022-10-17T23:31:52;34.72;;;11.52;;
41556;SDS011;27720;51.992;5.890;2022-10-17T23:34:22;31.85;;;12.73;;
41556;SDS011;27720;51.992;5.890;2022-10-17T23:36:51;32.30;;;11.07;;
41556;SDS011;27720;51.992;5.890;2022-10-17T23:39:17;32.90;;;11.15;;
41556;SDS011;27720;51.992;5.890;2022-10-17T23:41:51;38.15;;;11.52;;
41556;SDS011;27720;51.992;5.890;2022-10-17T23:44:20;32.65;;;9.93;;
41556;SDS011;27720;51.992;5.890;2022-10-17T23:46:47;27.70;;;10.98;;
41556;SDS011;27720;51.992;5.890;2022-10-17T23:49:16;44.47;;;11.52;;
41556;SDS011;27720;51.992;5.890;2022-10-17T23:51:45;25.88;;;9.63;;
41556;SDS011;27720;51.992;5.890;2022-10-17T23:54:10;26.55;;;9.90;;
41556;SDS011;27720;51.992;5.890;2022-10-17T23:56:44;21.92;;;9.50;;
41556;SDS011;27720;51.992;5.890;2022-10-17T23:59:10;29.13;;;9.45;;
